Terminal Aerodrome Forecast
Issued by NWS Omaha/Valley, NE

Home | Current Version | Previous Version | Text Only | Print | Product List | Glossary On
Versions: 1 2 3 4 5 6 7 8 9 10 11 12 13 14 15 16 17 18 19 20 21 22 23 24 25 26 27 28 29 30 31 32 33 34 35 36 37 38 39 40 41 42 43 44
000
FTUS43 KOAX 181504 AAF
TAFOFK
TAF AMD
KOFK 181504Z 1815/1912 31019G29KT P6SM SKC
     FM182000 31020G36KT P6SM FEW250
     FM190100 31010KT P6SM SKC WS020/32040KT
     FM190400 32010KT P6SM SKC=

USA.gov is the U.S. government's official web portal to all federal, state and local government web resources and services.